createdAt,value
2017-12-23T00:01:53.459Z,12.87
2017-12-23T00:04:21.608Z,12.47
2017-12-23T00:06:49.046Z,11.67
2017-12-23T00:09:16.819Z,13.50
2017-12-23T00:11:44.467Z,13.90
2017-12-23T00:14:11.898Z,14.03
2017-12-23T00:16:39.300Z,14.60
2017-12-23T00:19:07.768Z,12.37
2017-12-23T00:21:36.153Z,11.73
2017-12-23T00:24:04.760Z,13.43
2017-12-23T00:26:32.233Z,13.47
2017-12-23T00:28:59.657Z,11.77
2017-12-23T00:31:27.143Z,14.13
2017-12-23T00:33:54.661Z,12.20
2017-12-23T00:36:22.092Z,13.60
2017-12-23T00:38:49.538Z,11.90
2017-12-23T00:41:16.973Z,14.97
2017-12-23T00:43:44.429Z,14.03
2017-12-23T00:46:12.323Z,15.70
2017-12-23T00:48:42.913Z,15.97
2017-12-23T00:51:20.817Z,15.47
2017-12-23T00:53:48.607Z,16.60
2017-12-23T00:56:16.169Z,17.10
2017-12-23T00:58:43.801Z,16.23
2017-12-23T01:01:11.358Z,19.23
2017-12-23T01:03:38.804Z,18.30
2017-12-23T01:06:06.276Z,19.27
2017-12-23T01:08:33.748Z,19.60
2017-12-23T01:11:01.218Z,19.40
2017-12-23T01:13:28.659Z,20.40
2017-12-23T01:15:56.113Z,18.37
2017-12-23T01:18:23.611Z,17.00
2017-12-23T01:20:51.088Z,17.93
2017-12-23T01:23:18.607Z,18.50
2017-12-23T01:25:46.109Z,19.90
2017-12-23T01:28:13.553Z,19.70
2017-12-23T01:30:41.072Z,21.57
2017-12-23T01:33:08.518Z,24.60
2017-12-23T01:35:36.253Z,28.03
2017-12-23T01:38:03.739Z,25.13
2017-12-23T01:40:31.205Z,28.10
2017-12-23T01:42:58.655Z,29.53
2017-12-23T01:45:26.120Z,31.87
2017-12-23T01:47:53.592Z,31.40
2017-12-23T01:50:21.033Z,31.80
2017-12-23T01:52:48.479Z,38.07
2017-12-23T01:55:16.174Z,34.50
2017-12-23T01:57:43.593Z,34.10
2017-12-23T02:00:11.853Z,36.50
2017-12-23T02:02:40.646Z,36.07
2017-12-23T02:05:11.028Z,38.20
2017-12-23T02:07:38.569Z,33.80
2017-12-23T02:10:06.033Z,36.07
2017-12-23T02:12:38.581Z,35.20
2017-12-23T02:15:06.058Z,33.33
2017-12-23T02:17:33.574Z,36.50
2017-12-23T02:20:01.056Z,37.73
2017-12-23T02:22:30.449Z,34.27
2017-12-23T02:24:57.928Z,32.70
2017-12-23T02:27:25.426Z,35.27
2017-12-23T02:29:53.897Z,34.10
2017-12-23T02:32:22.272Z,34.23
2017-12-23T02:34:50.675Z,31.63
2017-12-23T02:37:19.057Z,34.33
2017-12-23T02:39:47.615Z,29.77
2017-12-23T02:42:15.398Z,30.90
2017-12-23T02:44:43.025Z,30.20
2017-12-23T02:47:10.491Z,34.70
2017-12-23T02:49:38.088Z,30.50
2017-12-23T02:52:05.608Z,34.60
2017-12-23T02:54:33.119Z,33.57
2017-12-23T02:57:00.645Z,31.63
2017-12-23T02:59:28.506Z,33.53
2017-12-23T03:01:56.100Z,34.93
2017-12-23T03:04:24.953Z,35.93
2017-12-23T03:06:54.678Z,36.23
2017-12-23T03:09:22.181Z,44.53
2017-12-23T03:11:49.697Z,36.00
2017-12-23T03:14:17.203Z,35.27
2017-12-23T03:16:45.807Z,37.97
2017-12-23T03:19:14.082Z,38.43
2017-12-23T03:21:46.661Z,37.20
2017-12-23T03:24:14.179Z,37.83
2017-12-23T03:26:41.728Z,36.13
2017-12-23T03:29:09.262Z,34.60
2017-12-23T03:31:36.784Z,37.53
2017-12-23T03:34:04.274Z,37.90
2017-12-23T03:36:31.794Z,37.80
2017-12-23T03:38:59.538Z,41.27
2017-12-23T03:41:27.041Z,41.30
2017-12-23T03:43:55.414Z,40.83
2017-12-23T03:46:23.760Z,42.60
2017-12-23T03:48:51.315Z,42.23
2017-12-23T03:51:19.057Z,41.67
2017-12-23T03:53:47.367Z,39.83
2017-12-23T03:56:15.686Z,39.63
2017-12-23T03:58:44.030Z,41.17
2017-12-23T04:01:12.997Z,41.80
2017-12-23T04:03:42.452Z,43.00
2017-12-23T04:06:10.035Z,40.77
2017-12-23T04:08:38.463Z,43.13
2017-12-23T04:11:05.995Z,40.53
2017-12-23T04:13:35.276Z,42.77
2017-12-23T04:16:02.749Z,45.20
2017-12-23T04:18:30.401Z,47.43
2017-12-23T04:20:58.017Z,42.63
2017-12-23T04:23:25.520Z,43.20
2017-12-23T04:25:53.574Z,40.33
2017-12-23T04:28:22.841Z,40.03
2017-12-23T04:30:51.160Z,47.47
2017-12-23T04:33:22.126Z,43.37
2017-12-23T04:35:50.633Z,40.07
2017-12-23T04:38:19.022Z,44.63
2017-12-23T04:40:52.401Z,39.23
2017-12-23T04:43:19.879Z,42.63
2017-12-23T04:45:47.315Z,39.93
2017-12-23T04:48:14.761Z,41.93
2017-12-23T04:50:42.307Z,39.83
2017-12-23T04:53:09.782Z,39.67
2017-12-23T04:55:37.233Z,42.63
2017-12-23T04:58:04.972Z,40.70
2017-12-23T05:00:32.419Z,40.87
2017-12-23T05:02:59.903Z,40.03
2017-12-23T05:05:27.352Z,39.03
2017-12-23T05:07:54.813Z,37.73
2017-12-23T05:10:22.314Z,39.67
2017-12-23T05:12:49.824Z,41.23
2017-12-23T05:15:17.274Z,41.37
2017-12-23T05:17:44.722Z,37.80
2017-12-23T05:20:13.819Z,39.90
2017-12-23T05:22:42.291Z,36.27
2017-12-23T05:25:10.537Z,37.20
2017-12-23T05:27:38.905Z,36.57
2017-12-23T05:30:06.340Z,33.93
2017-12-23T05:32:34.278Z,35.87
2017-12-23T05:35:01.742Z,36.50
2017-12-23T05:37:29.200Z,36.70
2017-12-23T05:39:56.650Z,32.70
2017-12-23T05:42:24.108Z,33.27
2017-12-23T05:44:51.578Z,32.03
2017-12-23T05:47:19.026Z,34.33
2017-12-23T05:49:47.086Z,29.63
2017-12-23T05:52:14.583Z,25.50
2017-12-23T05:54:42.061Z,31.03
2017-12-23T05:57:09.521Z,32.73
2017-12-23T05:59:37.040Z,34.90
2017-12-23T06:02:04.489Z,30.13
2017-12-23T06:04:31.979Z,30.47
2017-12-23T06:06:59.469Z,31.93
2017-12-23T06:09:26.913Z,28.77
2017-12-23T06:11:55.636Z,30.57
2017-12-23T06:14:24.376Z,30.23
2017-12-23T06:16:52.512Z,33.83
2017-12-23T06:19:19.952Z,32.27
2017-12-23T06:21:47.410Z,33.43
2017-12-23T06:24:14.939Z,30.80
2017-12-23T06:26:42.371Z,32.60
2017-12-23T06:29:09.858Z,32.57
2017-12-23T06:31:37.302Z,29.97
2017-12-23T06:34:04.853Z,30.50
2017-12-23T06:36:32.341Z,32.57
2017-12-23T06:38:59.772Z,32.67
2017-12-23T06:41:27.240Z,30.47
2017-12-23T06:43:54.722Z,34.73
2017-12-23T06:46:22.457Z,33.90
2017-12-23T06:48:49.948Z,30.17
2017-12-23T06:51:17.408Z,32.43
2017-12-23T06:53:45.902Z,31.67
2017-12-23T06:56:13.404Z,33.17
2017-12-23T06:58:40.892Z,30.40
2017-12-23T07:01:08.328Z,32.30
2017-12-23T07:03:36.082Z,28.60
2017-12-23T07:06:03.538Z,29.20
2017-12-23T07:08:31.017Z,27.43
2017-12-23T07:10:58.467Z,30.37
2017-12-23T07:13:26.948Z,31.53
2017-12-23T07:15:54.410Z,31.37
2017-12-23T07:18:21.941Z,31.53
2017-12-23T07:20:49.451Z,29.33
2017-12-23T07:23:16.937Z,31.40
2017-12-23T07:25:44.416Z,30.73
2017-12-23T07:28:11.887Z,31.60
2017-12-23T07:30:39.374Z,28.00
2017-12-23T07:33:06.824Z,27.40
2017-12-23T07:35:34.248Z,28.73
2017-12-23T07:38:01.812Z,27.63
2017-12-23T07:40:29.268Z,28.73
2017-12-23T07:42:56.764Z,27.93
2017-12-23T07:45:24.259Z,25.37
2017-12-23T07:47:51.720Z,28.47
2017-12-23T07:50:19.254Z,27.07
2017-12-23T07:52:46.700Z,27.37
2017-12-23T07:55:14.161Z,26.17
2017-12-23T07:57:42.416Z,26.93
2017-12-23T08:00:09.901Z,25.27
2017-12-23T08:02:37.370Z,30.03
2017-12-23T08:05:05.628Z,28.93
2017-12-23T08:07:33.113Z,25.67
2017-12-23T08:10:00.615Z,25.30
2017-12-23T08:12:28.328Z,26.43
2017-12-23T08:14:55.783Z,25.27
2017-12-23T08:17:23.242Z,27.57
2017-12-23T08:19:50.700Z,26.47
2017-12-23T08:22:18.775Z,25.93
2017-12-23T08:24:46.264Z,24.43
2017-12-23T08:27:13.719Z,24.57
2017-12-23T08:29:41.461Z,26.13
2017-12-23T08:32:08.949Z,24.53
2017-12-23T08:34:36.449Z,24.90
2017-12-23T08:37:04.070Z,27.37
2017-12-23T08:39:31.551Z,25.50
2017-12-23T08:41:59.060Z,24.03
2017-12-23T08:44:26.536Z,28.53
2017-12-23T08:46:54.019Z,24.57
2017-12-23T08:49:21.484Z,27.70
2017-12-23T08:51:48.945Z,23.87
2017-12-23T08:54:16.499Z,27.20
2017-12-23T08:56:43.965Z,28.00
2017-12-23T08:59:11.480Z,28.90
2017-12-23T09:01:38.963Z,26.70
2017-12-23T09:04:06.460Z,25.67
2017-12-23T09:06:33.924Z,24.90
2017-12-23T09:09:01.450Z,26.87
2017-12-23T09:11:28.962Z,26.07
2017-12-23T09:13:56.425Z,27.53
2017-12-23T09:16:23.870Z,21.30
2017-12-23T09:18:51.338Z,26.90
2017-12-23T09:21:18.780Z,23.03
2017-12-23T09:23:46.307Z,23.60
2017-12-23T09:26:13.805Z,26.90
2017-12-23T09:28:41.240Z,23.60
2017-12-23T09:31:08.699Z,20.50
2017-12-23T09:33:36.157Z,23.10
2017-12-23T09:36:03.682Z,24.07
2017-12-23T09:38:31.186Z,23.30
2017-12-23T09:40:58.673Z,23.23
2017-12-23T09:43:26.171Z,22.30
2017-12-23T09:45:53.627Z,22.67
2017-12-23T09:48:21.121Z,21.03
2017-12-23T09:50:48.580Z,20.43
2017-12-23T09:53:16.032Z,20.80
2017-12-23T09:55:43.642Z,19.93
2017-12-23T09:58:11.341Z,21.43
2017-12-23T10:00:39.672Z,20.10
2017-12-23T10:03:07.106Z,17.10
2017-12-23T10:05:34.563Z,16.63
2017-12-23T10:08:02.013Z,17.00
2017-12-23T10:10:29.667Z,18.40
2017-12-23T10:12:57.116Z,18.87
2017-12-23T10:15:24.579Z,18.97
2017-12-23T10:17:52.044Z,18.33
2017-12-23T10:20:19.508Z,18.07
2017-12-23T10:22:47.012Z,21.00
2017-12-23T10:25:14.472Z,18.30
2017-12-23T10:27:41.975Z,18.93
2017-12-23T10:30:09.486Z,17.03
2017-12-23T10:32:36.943Z,15.87
2017-12-23T10:35:04.423Z,17.70
2017-12-23T10:37:31.929Z,15.33
2017-12-23T10:39:59.500Z,17.83
2017-12-23T10:42:26.951Z,16.50
2017-12-23T10:44:54.474Z,17.57
2017-12-23T10:47:21.945Z,18.43
2017-12-23T10:49:49.477Z,16.23
2017-12-23T10:52:17.040Z,16.70
2017-12-23T10:54:44.544Z,15.93
2017-12-23T10:57:12.016Z,16.63
2017-12-23T10:59:39.529Z,16.50
2017-12-23T11:02:06.997Z,18.63
2017-12-23T11:04:34.450Z,18.37
2017-12-23T11:07:02.046Z,17.10
2017-12-23T11:09:29.659Z,18.07
2017-12-23T11:11:57.114Z,15.40
2017-12-23T11:14:24.571Z,17.87
2017-12-23T11:16:52.114Z,15.37
2017-12-23T11:19:19.582Z,15.73
2017-12-23T11:21:47.173Z,17.10
2017-12-23T11:24:14.635Z,15.10
2017-12-23T11:26:42.123Z,15.27
2017-12-23T11:29:09.646Z,18.67
2017-12-23T11:31:37.090Z,15.20
2017-12-23T11:34:04.601Z,15.83
2017-12-23T11:36:32.092Z,15.67
2017-12-23T11:38:59.541Z,15.03
2017-12-23T11:41:27.051Z,17.00
2017-12-23T11:43:54.539Z,15.27
2017-12-23T11:46:21.987Z,14.03
2017-12-23T11:48:49.928Z,16.07
2017-12-23T11:51:22.407Z,14.43
2017-12-23T11:53:50.602Z,14.40
2017-12-23T11:56:18.085Z,14.80
2017-12-23T11:58:45.559Z,13.53
2017-12-23T12:01:13.040Z,13.87
2017-12-23T12:03:40.653Z,15.70
2017-12-23T12:06:08.170Z,13.73
2017-12-23T12:08:35.670Z,12.17
2017-12-23T12:11:03.131Z,13.60
2017-12-23T12:13:30.737Z,14.40
2017-12-23T12:15:58.204Z,13.27
2017-12-23T12:18:25.671Z,13.30
2017-12-23T12:20:53.195Z,13.33
2017-12-23T12:23:20.633Z,12.33
2017-12-23T12:25:48.137Z,12.13
2017-12-23T12:28:15.624Z,13.30
2017-12-23T12:30:43.127Z,13.97
2017-12-23T12:33:10.679Z,12.60
2017-12-23T12:35:38.135Z,12.00
2017-12-23T12:38:05.604Z,12.97
2017-12-23T12:40:33.079Z,13.70
2017-12-23T12:43:00.579Z,11.77
2017-12-23T12:45:29.771Z,11.17
2017-12-23T12:47:57.252Z,11.47
2017-12-23T12:50:24.744Z,13.20
2017-12-23T12:52:52.465Z,12.13
2017-12-23T12:55:19.980Z,11.37
2017-12-23T12:57:47.420Z,10.43
2017-12-23T13:00:14.926Z,12.20
2017-12-23T13:02:42.407Z,12.60
2017-12-23T13:05:09.900Z,12.30
2017-12-23T13:07:37.403Z,11.57
2017-12-23T13:10:04.906Z,12.70
2017-12-23T13:12:32.380Z,13.07
2017-12-23T13:14:59.888Z,12.87
2017-12-23T13:17:27.465Z,14.20
2017-12-23T13:19:54.951Z,13.10
2017-12-23T13:22:27.447Z,11.00
2017-12-23T13:24:54.911Z,12.30
2017-12-23T13:27:22.362Z,14.17
2017-12-23T13:29:49.868Z,12.03
2017-12-23T13:32:17.344Z,12.40
2017-12-23T13:34:44.795Z,13.10
2017-12-23T13:37:12.271Z,12.70
2017-12-23T13:39:39.874Z,13.37
2017-12-23T13:42:08.253Z,14.97
2017-12-23T13:44:35.699Z,12.17
2017-12-23T13:47:03.165Z,13.50
2017-12-23T13:49:30.679Z,14.27
2017-12-23T13:51:58.149Z,14.33
2017-12-23T13:54:27.500Z,13.20
2017-12-23T13:56:55.776Z,14.93
2017-12-23T13:59:23.260Z,14.57
2017-12-23T14:01:50.769Z,14.03
2017-12-23T14:04:18.287Z,14.83
2017-12-23T14:06:45.729Z,15.30
2017-12-23T14:09:13.188Z,14.03
2017-12-23T14:11:40.667Z,13.80
2017-12-23T14:14:08.773Z,11.77
2017-12-23T14:16:36.224Z,13.57
2017-12-23T14:19:04.451Z,14.97
2017-12-23T14:24:24.563Z,15.77
2017-12-23T14:26:52.082Z,13.63
2017-12-23T14:29:19.826Z,13.73
2017-12-23T14:31:47.324Z,13.60
2017-12-23T14:34:14.817Z,15.43
2017-12-23T14:36:42.385Z,13.97
2017-12-23T14:39:09.899Z,12.80
2017-12-23T14:41:37.410Z,14.27
2017-12-23T14:44:04.918Z,14.90
2017-12-23T14:46:32.433Z,15.23
2017-12-23T14:48:59.935Z,14.47
2017-12-23T14:51:32.454Z,15.20
2017-12-23T14:53:59.978Z,14.53
2017-12-23T14:56:27.457Z,15.50
2017-12-23T14:58:54.922Z,14.77
2017-12-23T15:01:22.505Z,15.20
2017-12-23T15:03:49.982Z,16.23
2017-12-23T15:06:17.443Z,13.37
2017-12-23T15:08:44.918Z,15.83
2017-12-23T15:11:12.455Z,13.13
2017-12-23T15:13:39.988Z,12.20
2017-12-23T15:16:07.621Z,12.97
2017-12-23T15:18:35.115Z,11.93
2017-12-23T15:21:02.609Z,13.47
2017-12-23T15:23:30.067Z,14.47
2017-12-23T15:25:57.619Z,11.20
2017-12-23T15:28:25.035Z,12.40
2017-12-23T15:30:53.028Z,12.87
2017-12-23T15:33:20.509Z,10.37
2017-12-23T15:35:47.961Z,10.93
2017-12-23T15:38:15.480Z,11.60
2017-12-23T15:40:42.942Z,11.10
2017-12-23T15:43:10.397Z,10.07
2017-12-23T15:45:37.869Z,14.43
2017-12-23T15:48:06.195Z,11.47
2017-12-23T15:50:34.621Z,11.57
2017-12-23T15:53:02.113Z,9.70
2017-12-23T15:55:29.560Z,9.87
2017-12-23T15:57:57.017Z,8.73
2017-12-23T16:00:24.461Z,10.13
2017-12-23T16:02:51.968Z,8.27
2017-12-23T16:05:19.689Z,8.93
2017-12-23T16:07:48.990Z,9.17
2017-12-23T16:10:17.306Z,9.60
2017-12-23T16:12:44.941Z,9.50
2017-12-23T16:15:12.694Z,10.30
2017-12-23T16:17:42.104Z,9.17
2017-12-23T16:20:09.608Z,8.37
2017-12-23T16:22:37.986Z,8.27
2017-12-23T16:25:05.462Z,8.33
2017-12-23T16:27:32.947Z,8.63
2017-12-23T16:30:00.679Z,9.20
2017-12-23T16:32:28.256Z,9.70
2017-12-23T16:34:55.870Z,9.63
2017-12-23T16:37:23.349Z,9.67
2017-12-23T16:39:50.813Z,8.27
2017-12-23T16:42:18.271Z,11.03
2017-12-23T16:44:45.768Z,7.97
2017-12-23T16:47:13.259Z,7.57
2017-12-23T16:49:41.277Z,10.00
2017-12-23T16:52:08.880Z,9.87
2017-12-23T16:54:36.978Z,8.00
2017-12-23T16:57:04.664Z,8.83
2017-12-23T16:59:32.282Z,9.23
2017-12-23T17:02:04.794Z,10.90
2017-12-23T17:04:32.314Z,9.30
2017-12-23T17:06:59.820Z,8.50
2017-12-23T17:09:27.382Z,8.03
2017-12-23T17:11:54.826Z,8.77
2017-12-23T17:14:22.607Z,7.93
2017-12-23T17:16:50.053Z,8.07
2017-12-23T17:19:17.514Z,8.67
2017-12-23T17:21:44.977Z,8.77
2017-12-23T17:24:12.412Z,9.07
2017-12-23T17:26:39.873Z,10.17
2017-12-23T17:29:18.968Z,8.10
2017-12-23T17:31:46.467Z,8.37
2017-12-23T17:34:14.914Z,10.30
2017-12-23T17:36:42.475Z,8.60
2017-12-23T17:39:09.918Z,8.77
2017-12-23T17:41:37.435Z,8.70
2017-12-23T17:44:04.901Z,8.77
2017-12-23T17:46:32.369Z,9.83
2017-12-23T17:48:59.844Z,10.63
2017-12-23T17:51:27.332Z,11.10
2017-12-23T17:53:54.865Z,10.03
2017-12-23T17:56:22.432Z,9.20
2017-12-23T17:58:50.042Z,12.27
2017-12-23T18:01:17.534Z,10.77
2017-12-23T18:03:44.992Z,12.70
2017-12-23T18:06:12.516Z,11.93
2017-12-23T18:08:40.038Z,11.50
2017-12-23T18:11:07.622Z,12.27
2017-12-23T18:13:36.020Z,11.37
2017-12-23T18:16:03.485Z,13.20
2017-12-23T18:18:31.070Z,11.87
2017-12-23T18:20:58.581Z,11.77
2017-12-23T18:23:26.057Z,11.43
2017-12-23T18:25:53.654Z,12.00
2017-12-23T18:28:21.187Z,11.73
2017-12-23T18:30:48.648Z,13.53
2017-12-23T18:33:16.344Z,11.27
2017-12-23T18:35:43.834Z,12.27
2017-12-23T18:38:11.342Z,11.83
2017-12-23T18:40:38.948Z,10.97
2017-12-23T18:43:06.426Z,11.23
2017-12-23T18:45:33.887Z,11.67
2017-12-23T18:48:01.386Z,10.80
2017-12-23T18:50:29.927Z,11.40
2017-12-23T18:52:57.484Z,11.87
2017-12-23T18:55:24.931Z,10.83
2017-12-23T18:57:52.464Z,10.33
2017-12-23T19:00:19.934Z,10.77
2017-12-23T19:02:47.441Z,12.40
2017-12-23T19:05:14.957Z,10.73
2017-12-23T19:07:43.469Z,15.23
2017-12-23T19:10:10.942Z,10.87
2017-12-23T19:12:45.166Z,13.70
2017-12-23T19:15:12.977Z,10.63
2017-12-23T19:17:40.548Z,11.67
2017-12-23T19:20:08.793Z,10.40
2017-12-23T19:34:05.931Z,9.77
2017-12-23T19:36:33.497Z,14.57
2017-12-23T19:39:00.981Z,10.50
2017-12-23T19:41:28.468Z,11.03
2017-12-23T19:43:55.953Z,10.50
2017-12-23T19:46:23.462Z,9.73
2017-12-23T19:48:50.925Z,9.00
2017-12-23T19:51:18.375Z,11.37
2017-12-23T19:53:45.884Z,8.40
2017-12-23T19:56:13.371Z,9.13
2017-12-23T19:58:41.835Z,9.70
2017-12-23T20:01:09.515Z,10.73
2017-12-23T20:03:36.994Z,8.83
2017-12-23T20:06:05.628Z,8.80
2017-12-23T20:08:33.224Z,10.13
2017-12-23T20:11:00.686Z,8.77
2017-12-23T20:13:28.163Z,10.33
2017-12-23T20:15:55.641Z,10.00
2017-12-23T20:18:23.117Z,11.33
2017-12-23T20:20:50.621Z,9.77
2017-12-23T20:23:18.792Z,10.47
2017-12-23T20:25:47.512Z,9.27
2017-12-23T20:28:14.985Z,9.67
2017-12-23T20:30:42.576Z,10.57
2017-12-23T20:33:15.041Z,9.10
2017-12-23T20:35:43.711Z,8.37
2017-12-23T20:38:12.070Z,10.23
2017-12-23T20:40:39.525Z,9.30
2017-12-23T20:43:12.029Z,9.23
2017-12-23T20:45:39.477Z,9.20
2017-12-23T20:48:07.045Z,10.17
2017-12-23T20:50:34.587Z,8.40
2017-12-23T20:53:02.105Z,8.40
2017-12-23T20:55:29.585Z,8.07
2017-12-23T20:57:57.136Z,8.40
2017-12-23T21:00:24.663Z,8.73
2017-12-23T21:02:52.192Z,8.70
2017-12-23T21:05:19.691Z,8.20
2017-12-23T21:07:47.207Z,7.77
2017-12-23T21:10:14.726Z,9.07
2017-12-23T21:12:42.237Z,8.60
2017-12-23T21:15:09.693Z,8.90
2017-12-23T21:17:37.255Z,8.37
2017-12-23T21:20:04.722Z,7.60
2017-12-23T21:22:32.198Z,7.63
2017-12-23T21:24:59.843Z,8.00
2017-12-23T21:27:27.422Z,7.57
2017-12-23T21:29:55.074Z,7.60
2017-12-23T21:32:22.562Z,7.17
2017-12-23T21:34:50.079Z,7.70
2017-12-23T21:37:17.595Z,7.67
2017-12-23T21:39:45.087Z,7.43
2017-12-23T21:42:17.558Z,7.70
2017-12-23T21:44:45.073Z,7.40
2017-12-23T21:47:12.552Z,8.43
2017-12-23T21:49:40.285Z,7.83
2017-12-23T21:55:00.215Z,8.83
2017-12-23T21:57:27.657Z,6.83
2017-12-23T21:59:55.951Z,8.37
2017-12-23T22:02:23.447Z,8.13
2017-12-23T22:04:50.937Z,8.47
2017-12-23T22:07:20.445Z,7.53
2017-12-23T22:09:48.797Z,7.80
2017-12-23T22:12:17.192Z,7.13
2017-12-23T22:14:46.135Z,7.83
2017-12-23T22:17:17.154Z,8.43
2017-12-23T22:19:45.364Z,9.10
2017-12-23T22:22:12.930Z,8.53
2017-12-23T22:24:40.449Z,8.33
2017-12-23T22:27:08.815Z,8.67
2017-12-23T22:29:36.318Z,8.47
2017-12-23T22:32:03.766Z,8.60
2017-12-23T22:34:31.240Z,9.73
2017-12-23T22:36:58.792Z,9.23
2017-12-23T22:39:26.235Z,9.07
2017-12-23T22:41:53.774Z,8.83
2017-12-23T22:44:21.229Z,8.87
2017-12-23T22:46:48.774Z,8.90
2017-12-23T22:49:16.307Z,8.77
2017-12-23T22:51:43.771Z,9.47
2017-12-23T22:54:11.278Z,9.93
2017-12-23T22:56:38.690Z,9.20
2017-12-23T22:59:06.125Z,9.13
2017-12-23T23:01:34.434Z,9.07
2017-12-23T23:04:04.020Z,12.57
2017-12-23T23:06:31.989Z,8.87
2017-12-23T23:08:59.430Z,9.73
2017-12-23T23:11:27.138Z,10.10
2017-12-23T23:13:54.612Z,10.13
2017-12-23T23:16:22.099Z,9.50
2017-12-23T23:18:49.532Z,9.60
2017-12-23T23:21:17.025Z,10.60
2017-12-23T23:23:44.512Z,9.17
2017-12-23T23:26:12.090Z,9.83
2017-12-23T23:28:39.548Z,9.50
2017-12-23T23:31:07.493Z,9.17
2017-12-23T23:33:35.005Z,10.00
2017-12-23T23:36:02.501Z,9.37
2017-12-23T23:38:29.962Z,10.97
2017-12-23T23:40:57.451Z,9.57
2017-12-23T23:43:25.009Z,10.40
2017-12-23T23:45:52.465Z,9.17
2017-12-23T23:48:19.904Z,10.40
2017-12-23T23:50:47.355Z,10.33
2017-12-23T23:53:14.873Z,10.23
2017-12-23T23:55:42.275Z,10.03
2017-12-23T23:58:10.398Z,10.90
